createdAt,value
2022-10-20T00:00:57.565Z,1.67
2022-10-20T00:03:27.490Z,1.48
2022-10-20T00:05:55.878Z,1.60
2022-10-20T00:08:23.607Z,1.60
2022-10-20T00:10:54.939Z,1.88
2022-10-20T00:13:22.487Z,1.38
2022-10-20T00:15:50.871Z,1.75
2022-10-20T00:18:18.726Z,1.40
2022-10-20T00:20:48.242Z,1.40
2022-10-20T00:23:16.404Z,1.30
2022-10-20T00:25:44.118Z,1.80
2022-10-20T00:28:11.735Z,1.80
2022-10-20T00:30:39.910Z,1.30
2022-10-20T00:33:07.950Z,1.70
2022-10-20T00:35:39.212Z,1.73
2022-10-20T00:38:09.506Z,1.58
2022-10-20T00:40:37.283Z,1.42
2022-10-20T00:43:05.195Z,1.90
2022-10-20T00:45:32.854Z,1.17
2022-10-20T00:48:05.411Z,1.38
2022-10-20T00:50:40.031Z,1.77
2022-10-20T00:53:09.013Z,1.38
2022-10-20T00:55:40.263Z,1.60
2022-10-20T00:58:08.152Z,1.60
2022-10-20T01:00:38.389Z,1.80
2022-10-20T01:03:08.731Z,1.83
2022-10-20T01:05:36.472Z,1.90
2022-10-20T01:08:04.216Z,1.30
2022-10-20T01:10:39.246Z,1.45
2022-10-20T01:13:12.601Z,1.10
2022-10-20T01:15:45.100Z,1.35
2022-10-20T01:18:19.554Z,1.40
2022-10-20T01:21:19.163Z,1.88
2022-10-20T01:24:05.593Z,1.90
2022-10-20T01:26:55.793Z,1.80
2022-10-20T01:29:29.756Z,1.65
2022-10-20T01:32:06.520Z,1.40
2022-10-20T01:34:40.540Z,1.23
2022-10-20T01:37:28.203Z,1.70
2022-10-20T01:40:11.680Z,1.80
2022-10-20T01:42:41.888Z,1.65
2022-10-20T01:45:13.404Z,1.70
2022-10-20T01:47:42.356Z,1.67
2022-10-20T01:50:11.939Z,1.30
2022-10-20T01:52:39.709Z,1.55
2022-10-20T01:55:13.382Z,2.28
2022-10-20T01:57:53.766Z,1.50
2022-10-20T02:00:23.242Z,1.60
2022-10-20T02:03:06.144Z,1.60
2022-10-20T02:06:00.067Z,1.92
2022-10-20T02:08:34.655Z,1.90
2022-10-20T02:11:04.749Z,1.77
2022-10-20T02:13:36.503Z,1.73
2022-10-20T02:16:12.467Z,1.63
2022-10-20T02:18:43.652Z,1.75
2022-10-20T02:21:12.110Z,2.05
2022-10-20T02:23:43.536Z,1.90
2022-10-20T02:26:16.340Z,2.20
2022-10-20T02:28:47.850Z,1.60
2022-10-20T02:31:17.583Z,2.08
2022-10-20T02:33:46.645Z,1.80
2022-10-20T02:36:18.280Z,1.75
2022-10-20T02:38:46.178Z,1.77
2022-10-20T02:41:13.875Z,1.70
2022-10-20T02:43:41.482Z,1.60
2022-10-20T02:46:09.402Z,1.38
2022-10-20T02:48:39.077Z,1.70
2022-10-20T02:51:06.938Z,1.88
2022-10-20T02:53:34.896Z,1.67
2022-10-20T02:56:02.595Z,2.08
2022-10-20T02:58:30.418Z,1.80
2022-10-20T03:00:58.016Z,1.88
2022-10-20T03:03:25.638Z,1.58
2022-10-20T03:05:55.194Z,1.83
2022-10-20T03:08:23.113Z,2.08
2022-10-20T03:10:50.689Z,1.80
2022-10-20T03:13:18.455Z,2.03
2022-10-20T03:15:46.056Z,2.15
2022-10-20T03:18:13.649Z,2.13
2022-10-20T03:20:41.208Z,1.50
2022-10-20T03:23:10.153Z,1.70
2022-10-20T03:25:37.811Z,1.88
2022-10-20T03:28:05.676Z,1.95
2022-10-20T03:30:33.362Z,2.53
2022-10-20T03:33:00.946Z,1.83
2022-10-20T03:35:28.509Z,2.30
2022-10-20T03:37:56.045Z,1.63
2022-10-20T03:40:24.896Z,2.10
2022-10-20T03:42:52.620Z,2.28
2022-10-20T03:45:20.256Z,2.08
2022-10-20T03:47:47.988Z,2.35
2022-10-20T03:50:15.856Z,2.53
2022-10-20T03:52:43.443Z,2.10
2022-10-20T03:55:11.140Z,2.67
2022-10-20T03:57:40.126Z,2.78
2022-10-20T04:00:08.726Z,2.58
2022-10-20T04:02:41.284Z,2.50
2022-10-20T04:05:11.715Z,2.42
2022-10-20T04:07:39.353Z,1.92
2022-10-20T04:10:08.179Z,2.20
2022-10-20T04:12:36.314Z,2.10
2022-10-20T04:15:07.016Z,2.50
2022-10-20T04:17:34.690Z,2.25
2022-10-20T04:20:02.370Z,2.40
2022-10-20T04:22:30.192Z,2.20
2022-10-20T04:24:57.870Z,2.08
2022-10-20T04:27:25.638Z,2.05
2022-10-20T04:29:53.283Z,2.20
2022-10-20T04:32:22.351Z,2.38
2022-10-20T04:34:49.982Z,1.90
2022-10-20T04:37:17.749Z,2.45
2022-10-20T04:39:45.427Z,2.42
2022-10-20T04:42:13.065Z,2.45
2022-10-20T04:44:40.684Z,2.30
2022-10-20T04:47:08.241Z,2.20
2022-10-20T04:49:37.360Z,3.22
2022-10-20T04:52:05.356Z,2.80
2022-10-20T04:54:32.956Z,2.60
2022-10-20T04:57:00.586Z,2.63
2022-10-20T04:59:28.218Z,2.70
2022-10-20T05:01:55.842Z,2.53
2022-10-20T05:04:23.586Z,3.17
2022-10-20T05:06:52.541Z,2.70
2022-10-20T05:09:20.230Z,2.88
2022-10-20T05:11:47.821Z,3.40
2022-10-20T05:14:15.427Z,3.35
2022-10-20T05:16:43.017Z,2.80
2022-10-20T05:19:10.742Z,3.38
2022-10-20T05:21:38.486Z,3.10
2022-10-20T05:24:07.696Z,2.92
2022-10-20T05:26:37.435Z,2.85
2022-10-20T05:29:06.657Z,2.90
2022-10-20T05:31:37.912Z,2.65
2022-10-20T05:34:05.574Z,3.40
2022-10-20T05:36:33.205Z,2.83
2022-10-20T05:39:00.826Z,3.15
2022-10-20T05:41:34.773Z,3.08
2022-10-20T05:44:07.102Z,2.75
2022-10-20T05:46:37.856Z,2.97
2022-10-20T05:49:05.656Z,2.40
2022-10-20T05:51:36.089Z,2.30
2022-10-20T05:54:04.777Z,2.55
2022-10-20T05:56:34.405Z,3.00
2022-10-20T05:59:02.121Z,3.28
2022-10-20T06:01:39.840Z,2.65
2022-10-20T06:04:08.889Z,2.22
2022-10-20T06:06:37.000Z,3.15
2022-10-20T06:09:08.086Z,2.90
2022-10-20T06:11:39.521Z,2.60
2022-10-20T06:14:07.485Z,2.70
2022-10-20T06:16:35.724Z,2.30
2022-10-20T06:19:03.970Z,2.33
2022-10-20T06:21:33.347Z,2.60
2022-10-20T06:24:03.664Z,3.20
2022-10-20T06:26:33.453Z,3.45
2022-10-20T06:29:04.633Z,3.00
2022-10-20T06:31:34.216Z,3.40
2022-10-20T06:34:04.962Z,2.75
2022-10-20T06:36:36.115Z,2.85
2022-10-20T06:39:05.116Z,2.92
2022-10-20T06:41:33.728Z,3.38
2022-10-20T06:44:02.926Z,2.97
2022-10-20T06:46:32.145Z,3.50
2022-10-20T06:49:02.575Z,3.00
2022-10-20T06:51:30.830Z,2.75
2022-10-20T06:54:00.468Z,3.35
2022-10-20T06:56:29.888Z,3.13
2022-10-20T06:58:59.102Z,3.53
2022-10-20T07:01:29.330Z,3.20
2022-10-20T07:04:00.815Z,3.70
2022-10-20T07:06:31.036Z,3.60
2022-10-20T07:09:00.269Z,3.28
2022-10-20T07:11:29.296Z,3.42
2022-10-20T07:14:00.412Z,3.10
2022-10-20T07:16:31.502Z,3.22
2022-10-20T07:18:59.731Z,3.05
2022-10-20T07:21:34.657Z,2.85
2022-10-20T07:24:06.510Z,3.47
2022-10-20T07:26:36.144Z,3.75
2022-10-20T07:29:04.867Z,3.55
2022-10-20T07:31:36.457Z,3.40
2022-10-20T07:34:13.086Z,3.40
2022-10-20T07:36:43.723Z,3.15
2022-10-20T07:39:13.493Z,3.10
2022-10-20T07:41:44.108Z,3.40
2022-10-20T07:44:11.795Z,4.03
2022-10-20T07:46:40.860Z,3.35
2022-10-20T07:49:39.176Z,2.80
2022-10-20T07:51:56.555Z,3.13
2022-10-20T07:54:24.162Z,2.97
2022-10-20T07:56:52.067Z,3.40
2022-10-20T07:59:20.050Z,3.42
2022-10-20T08:01:49.259Z,2.25
2022-10-20T08:04:19.913Z,3.20
2022-10-20T08:06:47.580Z,3.22
2022-10-20T08:09:15.380Z,3.13
2022-10-20T08:11:43.047Z,3.13
2022-10-20T08:14:10.718Z,3.28
2022-10-20T08:16:44.843Z,2.67
2022-10-20T08:19:37.910Z,3.30
2022-10-20T08:22:05.772Z,17.80
2022-10-20T08:24:33.559Z,6.88
2022-10-20T08:27:03.570Z,3.22
2022-10-20T08:29:31.405Z,3.22
2022-10-20T08:31:59.017Z,3.85
2022-10-20T08:34:28.518Z,3.05
2022-10-20T08:36:56.158Z,2.58
2022-10-20T08:39:23.937Z,3.47
2022-10-20T08:42:07.627Z,3.17
2022-10-20T08:44:37.592Z,2.35
2022-10-20T08:47:14.277Z,2.83
2022-10-20T08:49:46.663Z,2.80
2022-10-20T08:52:15.831Z,2.60
2022-10-20T08:54:43.896Z,2.70
2022-10-20T08:57:22.332Z,2.20
2022-10-20T08:59:53.505Z,2.65
2022-10-20T09:02:22.088Z,2.42
2022-10-20T09:04:55.451Z,2.60
2022-10-20T09:07:28.850Z,2.40
2022-10-20T09:10:04.272Z,2.60
2022-10-20T09:12:33.243Z,3.05
2022-10-20T09:15:01.700Z,2.47
2022-10-20T09:17:30.225Z,3.20
2022-10-20T09:20:01.432Z,2.97
2022-10-20T09:22:35.577Z,2.58
2022-10-20T09:25:04.502Z,2.05
2022-10-20T09:27:35.629Z,2.15
2022-10-20T09:30:21.434Z,2.53
2022-10-20T09:32:50.054Z,2.08
2022-10-20T09:35:26.075Z,2.45
2022-10-20T09:38:01.125Z,2.58
2022-10-20T09:40:29.408Z,3.08
2022-10-20T09:43:00.550Z,2.60
2022-10-20T09:45:30.850Z,2.65
2022-10-20T09:48:03.549Z,2.30
2022-10-20T09:50:36.186Z,2.50
2022-10-20T09:53:07.454Z,3.00
2022-10-20T09:55:42.433Z,3.17
2022-10-20T09:58:19.947Z,2.53
2022-10-20T10:00:57.097Z,2.75
2022-10-20T10:03:25.669Z,2.67
2022-10-20T10:05:56.555Z,2.10
2022-10-20T10:08:26.654Z,2.50
2022-10-20T10:11:05.323Z,2.55
2022-10-20T10:13:39.957Z,3.72
2022-10-20T10:16:10.057Z,3.17
2022-10-20T10:18:41.327Z,2.33
2022-10-20T10:21:15.378Z,3.63
2022-10-20T10:23:52.531Z,2.83
2022-10-20T10:26:46.897Z,2.80
2022-10-20T10:29:22.982Z,3.28
2022-10-20T10:31:56.901Z,2.50
2022-10-20T10:34:33.750Z,2.10
2022-10-20T10:37:04.292Z,2.72
2022-10-20T10:39:37.496Z,2.35
2022-10-20T10:42:20.505Z,2.50
2022-10-20T10:44:56.220Z,2.60
2022-10-20T10:47:40.190Z,2.83
2022-10-20T10:50:27.084Z,2.60
2022-10-20T10:53:06.833Z,2.38
2022-10-20T10:55:49.332Z,2.70
2022-10-20T10:58:30.935Z,2.47
2022-10-20T11:01:09.285Z,3.00
2022-10-20T11:03:54.856Z,2.47
2022-10-20T11:06:29.684Z,2.78
2022-10-20T11:09:22.194Z,2.58
2022-10-20T11:12:12.655Z,2.83
2022-10-20T11:14:48.364Z,2.63
2022-10-20T11:17:30.692Z,2.75
2022-10-20T11:20:14.250Z,2.45
2022-10-20T11:22:54.115Z,2.75
2022-10-20T11:25:31.393Z,2.88
2022-10-20T11:27:59.880Z,2.90
2022-10-20T11:30:28.479Z,2.53
2022-10-20T11:33:02.145Z,3.00
2022-10-20T11:35:36.144Z,3.08
2022-10-20T11:38:17.051Z,3.28
2022-10-20T11:40:51.205Z,2.92
2022-10-20T11:43:24.906Z,2.78
2022-10-20T11:45:56.985Z,3.33
2022-10-20T11:48:30.490Z,3.22
2022-10-20T11:51:21.544Z,2.40
2022-10-20T11:54:11.535Z,2.50
2022-10-20T11:56:54.775Z,3.03
2022-10-20T11:59:40.644Z,2.72
2022-10-20T12:02:51.585Z,2.60
2022-10-20T12:05:30.240Z,2.90
2022-10-20T12:08:30.593Z,2.72
2022-10-20T12:11:05.712Z,3.00
2022-10-20T12:13:46.976Z,2.97
2022-10-20T12:16:53.892Z,3.33
2022-10-20T12:19:23.024Z,3.00
2022-10-20T12:21:59.280Z,2.95
2022-10-20T12:24:37.801Z,4.95
2022-10-20T12:27:27.623Z,3.67
2022-10-20T12:30:04.458Z,3.40
2022-10-20T12:32:54.772Z,4.28
2022-10-20T12:35:45.115Z,3.63
2022-10-20T12:38:18.544Z,3.45
2022-10-20T12:40:51.244Z,4.43
2022-10-20T12:43:41.362Z,3.55
2022-10-20T12:46:17.202Z,3.70
2022-10-20T12:48:47.870Z,3.90
2022-10-20T12:51:28.988Z,4.00
2022-10-20T12:54:01.559Z,3.80
2022-10-20T12:56:34.920Z,3.85
2022-10-20T12:59:35.312Z,3.60
2022-10-20T13:02:40.005Z,3.40
2022-10-20T13:05:42.889Z,3.85
2022-10-20T13:08:32.492Z,3.65
2022-10-20T13:11:42.498Z,3.47
2022-10-20T13:14:49.467Z,3.28
2022-10-20T13:17:21.513Z,2.97
2022-10-20T13:20:00.406Z,3.00
2022-10-20T13:22:39.007Z,3.28
2022-10-20T13:25:15.476Z,3.05
2022-10-20T13:27:43.351Z,3.30
2022-10-20T13:30:21.199Z,3.20
2022-10-20T13:33:17.907Z,3.10
2022-10-20T13:35:54.122Z,3.20
2022-10-20T13:38:28.031Z,3.70
2022-10-20T13:41:02.554Z,3.08
2022-10-20T13:43:37.409Z,3.83
2022-10-20T13:46:22.963Z,3.17
2022-10-20T13:49:12.383Z,2.78
2022-10-20T13:51:44.094Z,2.70
2022-10-20T13:54:23.535Z,3.22
2022-10-20T13:56:52.079Z,3.15
2022-10-20T14:01:54.362Z,2.75
2022-10-20T14:04:33.703Z,2.45
2022-10-20T14:07:04.791Z,3.10
2022-10-20T14:09:33.901Z,2.85
2022-10-20T14:12:03.974Z,3.13
2022-10-20T14:14:32.434Z,2.70
2022-10-20T14:17:02.536Z,2.88
2022-10-20T14:19:33.480Z,2.90
2022-10-20T14:22:13.838Z,2.95
2022-10-20T14:24:45.142Z,3.00
2022-10-20T14:27:18.290Z,2.40
2022-10-20T14:29:47.250Z,2.88
2022-10-20T14:32:18.684Z,2.75
2022-10-20T14:34:56.890Z,2.70
2022-10-20T14:37:31.729Z,2.90
2022-10-20T14:40:03.215Z,2.45
2022-10-20T14:42:32.921Z,3.15
2022-10-20T14:45:02.684Z,3.17
2022-10-20T14:47:35.176Z,2.58
2022-10-20T14:50:03.148Z,2.90
2022-10-20T14:52:35.443Z,2.90
2022-10-20T14:55:31.032Z,2.50
2022-10-20T14:57:58.704Z,2.95
2022-10-20T15:00:33.440Z,3.28
2022-10-20T15:03:11.166Z,2.85
2022-10-20T15:05:48.359Z,3.72
2022-10-20T15:08:25.502Z,4.07
2022-10-20T15:10:55.923Z,3.25
2022-10-20T15:13:28.014Z,3.65
2022-10-20T15:15:57.537Z,4.07
2022-10-20T15:18:25.649Z,3.50
2022-10-20T15:20:54.308Z,3.60
2022-10-20T15:23:23.709Z,3.53
2022-10-20T15:25:55.655Z,3.83
2022-10-20T15:28:40.310Z,3.70
2022-10-20T15:31:17.188Z,3.55
2022-10-20T15:33:45.043Z,3.53
2022-10-20T15:36:15.627Z,3.65
2022-10-20T15:38:43.730Z,4.68
2022-10-20T15:41:15.723Z,3.90
2022-10-20T15:43:44.096Z,4.35
2022-10-20T15:46:13.465Z,4.05
2022-10-20T15:48:41.679Z,4.38
2022-10-20T15:51:16.311Z,4.20
2022-10-20T15:53:46.067Z,4.13
2022-10-20T15:56:15.359Z,3.83
2022-10-20T15:58:43.296Z,4.43
2022-10-20T16:01:13.438Z,4.38
2022-10-20T16:03:43.236Z,4.20
2022-10-20T16:06:13.407Z,3.97
2022-10-20T16:08:41.577Z,4.13
2022-10-20T16:11:10.533Z,4.70
2022-10-20T16:13:39.727Z,4.43
2022-10-20T16:16:08.972Z,4.60
2022-10-20T16:18:36.674Z,4.68
2022-10-20T16:21:05.934Z,4.65
2022-10-20T16:23:38.307Z,4.65
2022-10-20T16:26:10.409Z,4.30
2022-10-20T16:28:39.869Z,4.85
2022-10-20T16:31:09.708Z,4.30
2022-10-20T16:33:38.153Z,5.85
2022-10-20T16:38:39.898Z,4.72
2022-10-20T16:41:11.170Z,4.50
2022-10-20T16:43:40.579Z,4.72
2022-10-20T16:46:09.902Z,5.50
2022-10-20T16:48:41.426Z,5.70
2022-10-20T16:51:12.706Z,4.63
2022-10-20T16:53:40.310Z,4.75
2022-10-20T16:56:09.144Z,5.18
2022-10-20T16:58:37.122Z,5.28
2022-10-20T17:01:09.632Z,5.05
2022-10-20T17:03:37.474Z,4.65
2022-10-20T17:06:07.251Z,4.78
2022-10-20T17:08:36.150Z,4.78
2022-10-20T17:11:05.501Z,4.68
2022-10-20T17:13:35.417Z,5.15
2022-10-20T17:16:07.287Z,4.78
2022-10-20T17:18:35.092Z,5.15
2022-10-20T17:21:02.949Z,4.25
2022-10-20T17:23:35.237Z,4.35
2022-10-20T17:26:05.529Z,4.75
2022-10-20T17:28:34.260Z,4.95
2022-10-20T17:31:01.930Z,4.55
2022-10-20T17:33:32.040Z,5.07
2022-10-20T17:36:01.336Z,4.93
2022-10-20T17:38:30.105Z,4.90
2022-10-20T17:41:03.754Z,4.43
2022-10-20T17:43:31.483Z,4.55
2022-10-20T17:46:00.125Z,4.75
2022-10-20T17:48:27.818Z,4.55
2022-10-20T17:51:05.000Z,4.50
2022-10-20T17:53:33.184Z,4.07
2022-10-20T17:56:05.255Z,5.18
2022-10-20T17:58:33.629Z,4.78
2022-10-20T18:01:08.829Z,4.57
2022-10-20T18:03:36.557Z,5.25
2022-10-20T18:06:10.539Z,4.47
2022-10-20T18:08:38.285Z,4.60
2022-10-20T18:11:12.281Z,4.63
2022-10-20T18:13:40.404Z,5.03
2022-10-20T18:16:10.795Z,4.82
2022-10-20T18:18:39.269Z,5.70
2022-10-20T18:21:09.501Z,5.13
2022-10-20T18:23:37.302Z,5.78
2022-10-20T18:26:07.613Z,6.05
2022-10-20T18:28:35.910Z,5.55
2022-10-20T18:31:07.642Z,5.80
2022-10-20T18:33:35.403Z,6.15
2022-10-20T18:36:04.215Z,5.68
2022-10-20T18:38:36.202Z,6.47
2022-10-20T18:41:08.199Z,6.10
2022-10-20T18:43:36.158Z,5.97
2022-10-20T18:46:05.012Z,5.93
2022-10-20T18:48:36.713Z,5.93
2022-10-20T18:51:05.887Z,6.05
2022-10-20T18:53:36.338Z,5.53
2022-10-20T18:56:06.498Z,6.28
2022-10-20T18:58:39.441Z,6.10
2022-10-20T19:01:10.215Z,5.72
2022-10-20T19:03:38.584Z,5.57
2022-10-20T19:06:08.563Z,6.35
2022-10-20T19:08:38.930Z,6.20
2022-10-20T19:11:08.703Z,6.13
2022-10-20T19:13:37.255Z,5.93
2022-10-20T19:16:08.925Z,5.78
2022-10-20T19:18:36.538Z,6.40
2022-10-20T19:21:06.386Z,6.38
2022-10-20T19:23:36.478Z,6.13
2022-10-20T19:26:07.825Z,7.07
2022-10-20T19:28:37.423Z,7.18
2022-10-20T19:31:20.522Z,7.20
2022-10-20T19:33:50.906Z,6.63
2022-10-20T19:36:19.211Z,6.45
2022-10-20T19:38:47.803Z,6.72
2022-10-20T19:41:16.956Z,6.72
2022-10-20T19:43:44.629Z,7.40
2022-10-20T19:46:14.261Z,7.93
2022-10-20T19:48:42.254Z,7.57
2022-10-20T19:51:10.372Z,7.80
2022-10-20T19:53:39.250Z,7.50
2022-10-20T19:56:08.578Z,7.80
2022-10-20T19:58:41.449Z,8.32
2022-10-20T20:01:11.941Z,8.23
2022-10-20T20:03:39.690Z,8.30
2022-10-20T20:06:09.638Z,8.45
2022-10-20T20:08:38.254Z,8.50
2022-10-20T20:11:06.800Z,8.63
2022-10-20T20:13:34.365Z,7.88
2022-10-20T20:16:07.557Z,8.65
2022-10-20T20:18:36.154Z,8.23
2022-10-20T20:21:05.920Z,8.88
2022-10-20T20:23:47.608Z,9.40
2022-10-20T20:26:23.600Z,9.20
2022-10-20T20:28:53.502Z,9.20
2022-10-20T20:31:23.340Z,8.45
2022-10-20T20:33:51.577Z,9.95
2022-10-20T20:36:19.482Z,9.27
2022-10-20T20:38:47.221Z,9.63
2022-10-20T20:41:16.646Z,9.05
2022-10-20T20:43:45.764Z,8.77
2022-10-20T20:46:15.320Z,8.85
2022-10-20T20:48:44.847Z,7.95
2022-10-20T20:51:13.300Z,9.18
2022-10-20T20:53:41.706Z,8.93
2022-10-20T20:56:11.303Z,10.02
2022-10-20T20:58:40.597Z,9.23
2022-10-20T21:01:10.236Z,9.02
2022-10-20T21:03:38.131Z,9.95
2022-10-20T21:06:08.995Z,8.25
2022-10-20T21:08:38.391Z,9.13
2022-10-20T21:11:07.629Z,8.02
2022-10-20T21:13:36.082Z,8.55
2022-10-20T21:16:15.218Z,10.05
2022-10-20T21:18:44.300Z,9.85
2022-10-20T21:21:15.164Z,10.43
2022-10-20T21:23:43.430Z,9.32
2022-10-20T21:26:12.920Z,9.65
2022-10-20T21:28:41.394Z,10.23
2022-10-20T21:31:11.050Z,9.38
2022-10-20T21:33:39.513Z,9.57
2022-10-20T21:36:09.990Z,9.65
2022-10-20T21:38:40.288Z,9.98
2022-10-20T21:41:09.464Z,10.18
2022-10-20T21:43:38.969Z,9.68
2022-10-20T21:46:15.084Z,9.45
2022-10-20T21:48:43.736Z,9.43
2022-10-20T21:51:13.177Z,10.77
2022-10-20T21:53:42.421Z,11.02
2022-10-20T21:56:10.353Z,10.10
2022-10-20T21:58:38.344Z,9.27
2022-10-20T22:01:10.914Z,9.70
2022-10-20T22:03:39.469Z,10.20
2022-10-20T22:06:07.722Z,9.55
2022-10-20T22:08:36.486Z,10.25
2022-10-20T22:11:08.532Z,10.45
2022-10-20T22:13:36.536Z,9.90
2022-10-20T22:16:06.853Z,9.77
2022-10-20T22:18:34.546Z,9.98
2022-10-20T22:21:03.700Z,10.00
2022-10-20T22:23:31.281Z,9.07
2022-10-20T22:25:58.920Z,9.90
2022-10-20T22:28:28.447Z,10.10
2022-10-20T22:30:56.105Z,10.55
2022-10-20T22:33:24.101Z,10.02
2022-10-20T22:35:51.681Z,9.93
2022-10-20T22:38:19.294Z,10.27
2022-10-20T22:40:46.901Z,10.82
2022-10-20T22:43:14.862Z,10.95
2022-10-20T22:45:43.888Z,10.18
2022-10-20T22:48:11.526Z,10.05
2022-10-20T22:50:40.294Z,10.02
2022-10-20T22:53:11.235Z,9.70
2022-10-20T22:55:38.990Z,9.52
2022-10-20T22:58:06.575Z,9.57
2022-10-20T23:00:34.560Z,10.10
2022-10-20T23:03:03.598Z,9.40
2022-10-20T23:05:31.336Z,9.40
2022-10-20T23:07:59.406Z,9.35
2022-10-20T23:10:27.123Z,9.00
2022-10-20T23:12:54.711Z,10.02
2022-10-20T23:15:22.516Z,9.60
2022-10-20T23:17:50.112Z,9.95
2022-10-20T23:20:19.062Z,10.13
2022-10-20T23:22:47.986Z,9.85
2022-10-20T23:25:15.760Z,9.10
2022-10-20T23:27:43.322Z,9.30
2022-10-20T23:30:11.490Z,9.00
2022-10-20T23:32:39.037Z,9.32
2022-10-20T23:35:07.633Z,9.85
2022-10-20T23:37:38.110Z,9.75
2022-10-20T23:40:07.383Z,9.63
2022-10-20T23:42:34.985Z,10.05
2022-10-20T23:45:02.634Z,9.20
2022-10-20T23:47:30.296Z,9.38
2022-10-20T23:49:57.958Z,9.48
2022-10-20T23:52:25.596Z,9.88
2022-10-20T23:54:54.574Z,9.23
2022-10-20T23:57:22.088Z,10.18
2022-10-20T23:59:49.629Z,9.23
